An Run Da 2 — BHNX — position and weather

sailwx.info

Track history (hours):
 
Tides and Currents Weather Stations Pressure Air Temp Water Temp Dewpoint Dewpoint Depression Visibility Wind Speed Wind Dir Waves Ship Positions

An Run Da 2

Last reported at 2014-Aug-20 23:22 UTC. Time now 2014-Aug-21 00:26 UTC.
Position N 36°48' E 122°53'.

Length 147 m; draft 5.2 m.

Type: Cargo ship. MMSI: 413360230.

Date/timePositionNaut miles runAvg speedWind from/ knotsBaromVisibWave heightAir tempDewpointWater temp
2014-Aug-20 23:22N 36°48' E 122°53'34911.3
2014-Aug-19 16:30N 30°59' E 122°33'1112.0
2014-Aug-19 15:33N 31°02' E 122°20'3411.2
2014-Aug-19 12:33N 31°17' E 121°45'1110.6
2014-Aug-19 11:33N 31°23' E 121°35'4 3.9
2014-Aug-19 10:33N 31°21' E 121°31'5 5.4
2014-Aug-19 09:33N 31°16' E 121°34'12 0.6
2014-Aug-18 12:33N 31°05' E 121°28'0 0.0
2014-Aug-18 02:09N 31°05' E 121°28'0 0.0
2014-Aug-18 01:30N 31°05' E 121°28'1 1.4
2014-Aug-18 00:31N 31°07' E 121°28'18 3.0
2014-Aug-17 18:33N 31°22' E 121°39'0 0.0
2014-Aug-17 17:33N 31°22' E 121°39'0 0.0
2014-Aug-17 16:27N 31°22' E 121°39'0 0.0
2014-Aug-17 15:32N 31°22' E 121°39'0 0.0
2014-Aug-17 14:31N 31°22' E 121°39'0 0.0
2014-Aug-17 13:23N 31°22' E 121°39'0 0.0
2014-Aug-17 12:33N 31°22' E 121°39'0 0.0
2014-Aug-17 11:20N 31°22' E 121°39'0 0.0
2014-Aug-17 10:33N 31°22' E 121°39'0 0.1
2014-Aug-17 09:17N 31°22' E 121°39'0 0.0
2014-Aug-17 08:23N 31°22' E 121°39'0 0.0
2014-Aug-17 07:33N 31°22' E 121°39'0 0.0
2014-Aug-17 06:33N 31°22' E 121°39'0 0.2
2014-Aug-17 05:31N 31°22' E 121°39'0 0.1
2014-Aug-17 04:31N 31°22' E 121°39'0 0.0
2014-Aug-17 03:31N 31°22' E 121°39'0 0.0
2014-Aug-17 02:18N 31°22' E 121°39'0 0.0
2014-Aug-17 01:30N 31°22' E 121°39'0 0.1
2014-Aug-17 00:30N 31°22' E 121°39'0 0.0
2014-Aug-16 23:30N 31°22' E 121°39'0 0.0
2014-Aug-16 22:30N 31°22' E 121°39'0 0.2
2014-Aug-16 21:24N 31°22' E 121°39'0 0.0
2014-Aug-16 20:30N 31°22' E 121°39'0 0.0
2014-Aug-16 19:29N 31°22' E 121°39'0 0.0
2014-Aug-16 18:29N 31°22' E 121°39'0 0.1
2014-Aug-16 17:23N 31°22' E 121°39'0 0.2
2014-Aug-16 16:29N 31°22' E 121°39'0 0.0
2014-Aug-16 15:33N 31°22' E 121°39'0 0.0
2014-Aug-16 14:20N 31°22' E 121°39'0 0.0
2014-Aug-16 13:26N 31°22' E 121°39'0 0.0
2014-Aug-16 12:26N 31°22' E 121°39'0 0.0
2014-Aug-16 11:32N 31°22' E 121°39'0 0.1
2014-Aug-16 10:07N 31°22' E 121°39'0 0.0
2014-Aug-16 09:25N 31°22' E 121°39'0 0.0
2014-Aug-16 08:26N 31°22' E 121°39'0 0.0
2014-Aug-16 06:14N 31°22' E 121°39'4 6.1
2014-Aug-16 05:33N 31°19' E 121°43'337 7.5
2014-Aug-14 08:33N 36°53' E 122°46'1111.3
2014-Aug-14 07:33N 37°04' E 122°46'2612.0
2014-Aug-14 05:24N 37°30' E 122°43'1011.3
2014-Aug-14 04:32N 37°34' E 122°32'1010.6
2014-Aug-14 03:33N 37°38' E 122°20'1010.1
2014-Aug-14 02:33N 37°40' E 122°07'10 9.8
2014-Aug-14 01:31N 37°44' E 121°55'1010.1
2014-Aug-14 00:32N 37°47' E 121°43'1110.6
2014-Aug-13 23:30N 37°50' E 121°30'165 4.3
2014-Aug-12 09:23N 38°24' E 118°05'1 1.3
2014-Aug-12 08:31N 38°24' E 118°06'2 2.1
2014-Aug-12 07:32N 38°25' E 118°09'3 0.2
2014-Aug-11 14:31N 38°24' E 118°13'0 0.1
2014-Aug-11 13:33N 38°24' E 118°13'0 0.0
2014-Aug-11 12:30N 38°24' E 118°13'0 0.0
2014-Aug-11 11:30N 38°24' E 118°13'  
Track history (hours):
 
Tides and Currents Weather Stations Pressure Air Temp Water Temp Dewpoint Dewpoint Depression Visibility Wind Speed Wind Dir Waves Ship Positions

An Run Da 2

Last reported at 2014-Aug-20 23:22 UTC. Time now 2014-Aug-21 00:26 UTC.
Position N 36°48' E 122°53'.

Length 147 m; draft 5.2 m.

Type: Cargo ship. MMSI: 413360230.

Date/timePositionNaut miles runAvg speedWind from/ knotsBaromVisibWave heightAir tempDewpointWater temp
2014-Aug-20 23:22N 36°48' E 122°53'34911.3
2014-Aug-19 16:30N 30°59' E 122°33'1112.0
2014-Aug-19 15:33N 31°02' E 122°20'3411.2
2014-Aug-19 12:33N 31°17' E 121°45'1110.6
2014-Aug-19 11:33N 31°23' E 121°35'4 3.9
2014-Aug-19 10:33N 31°21' E 121°31'5 5.4
2014-Aug-19 09:33N 31°16' E 121°34'12 0.6
2014-Aug-18 12:33N 31°05' E 121°28'0 0.0
2014-Aug-18 02:09N 31°05' E 121°28'0 0.0
2014-Aug-18 01:30N 31°05' E 121°28'1 1.4
2014-Aug-18 00:31N 31°07' E 121°28'18 3.0
2014-Aug-17 18:33N 31°22' E 121°39'0 0.0
2014-Aug-17 17:33N 31°22' E 121°39'0 0.0
2014-Aug-17 16:27N 31°22' E 121°39'0 0.0
2014-Aug-17 15:32N 31°22' E 121°39'0 0.0
2014-Aug-17 14:31N 31°22' E 121°39'0 0.0
2014-Aug-17 13:23N 31°22' E 121°39'0 0.0
2014-Aug-17 12:33N 31°22' E 121°39'0 0.0
2014-Aug-17 11:20N 31°22' E 121°39'0 0.0
2014-Aug-17 10:33N 31°22' E 121°39'0 0.1
2014-Aug-17 09:17N 31°22' E 121°39'0 0.0
2014-Aug-17 08:23N 31°22' E 121°39'0 0.0
2014-Aug-17 07:33N 31°22' E 121°39'0 0.0
2014-Aug-17 06:33N 31°22' E 121°39'0 0.2
2014-Aug-17 05:31N 31°22' E 121°39'0 0.1
2014-Aug-17 04:31N 31°22' E 121°39'0 0.0
2014-Aug-17 03:31N 31°22' E 121°39'0 0.0
2014-Aug-17 02:18N 31°22' E 121°39'0 0.0
2014-Aug-17 01:30N 31°22' E 121°39'0 0.1
2014-Aug-17 00:30N 31°22' E 121°39'0 0.0
2014-Aug-16 23:30N 31°22' E 121°39'0 0.0
2014-Aug-16 22:30N 31°22' E 121°39'0 0.2
2014-Aug-16 21:24N 31°22' E 121°39'0 0.0
2014-Aug-16 20:30N 31°22' E 121°39'0 0.0
2014-Aug-16 19:29N 31°22' E 121°39'0 0.0
2014-Aug-16 18:29N 31°22' E 121°39'0 0.1
2014-Aug-16 17:23N 31°22' E 121°39'0 0.2
2014-Aug-16 16:29N 31°22' E 121°39'0 0.0
2014-Aug-16 15:33N 31°22' E 121°39'0 0.0
2014-Aug-16 14:20N 31°22' E 121°39'0 0.0
2014-Aug-16 13:26N 31°22' E 121°39'0 0.0
2014-Aug-16 12:26N 31°22' E 121°39'0 0.0
2014-Aug-16 11:32N 31°22' E 121°39'0 0.1
2014-Aug-16 10:07N 31°22' E 121°39'0 0.0
2014-Aug-16 09:25N 31°22' E 121°39'0 0.0
2014-Aug-16 08:26N 31°22' E 121°39'0 0.0
2014-Aug-16 06:14N 31°22' E 121°39'4 6.1
2014-Aug-16 05:33N 31°19' E 121°43'337 7.5
2014-Aug-14 08:33N 36°53' E 122°46'1111.3
2014-Aug-14 07:33N 37°04' E 122°46'2612.0
2014-Aug-14 05:24N 37°30' E 122°43'1011.3
2014-Aug-14 04:32N 37°34' E 122°32'1010.6
2014-Aug-14 03:33N 37°38' E 122°20'1010.1
2014-Aug-14 02:33N 37°40' E 122°07'10 9.8
2014-Aug-14 01:31N 37°44' E 121°55'1010.1
2014-Aug-14 00:32N 37°47' E 121°43'1110.6
2014-Aug-13 23:30N 37°50' E 121°30'165 4.3
2014-Aug-12 09:23N 38°24' E 118°05'1 1.3
2014-Aug-12 08:31N 38°24' E 118°06'2 2.1
2014-Aug-12 07:32N 38°25' E 118°09'3 0.2
2014-Aug-11 14:31N 38°24' E 118°13'0 0.1
2014-Aug-11 13:33N 38°24' E 118°13'0 0.0
2014-Aug-11 12:30N 38°24' E 118°13'0 0.0
2014-Aug-11 11:30N 38°24' E 118°13'  

Dump ship's entire track history